createdAt,value
2018-07-10T00:00:35.793Z,49.38
2018-07-10T00:06:17.832Z,49.41
2018-07-10T00:11:57.584Z,49.74
2018-07-10T00:15:22.461Z,49.68
2018-07-10T00:18:47.165Z,51.17
2018-07-10T00:22:11.594Z,51.48
2018-07-10T00:25:36.322Z,50.20
2018-07-10T00:29:00.985Z,51.79
2018-07-10T00:32:25.282Z,51.35
2018-07-10T00:35:50.041Z,51.07
2018-07-10T00:39:14.797Z,50.22
2018-07-10T00:42:39.567Z,50.38
2018-07-10T00:46:04.339Z,51.16
2018-07-10T00:49:29.153Z,51.24
2018-07-10T00:52:53.869Z,51.25
2018-07-10T00:56:18.593Z,49.89
2018-07-10T00:59:43.286Z,49.76
2018-07-10T01:03:08.151Z,49.87
2018-07-10T01:06:33.004Z,50.15
2018-07-10T01:09:57.753Z,49.72
2018-07-10T01:13:22.510Z,49.51
2018-07-10T01:16:47.262Z,49.34
2018-07-10T01:20:12.156Z,49.97
2018-07-10T01:23:38.786Z,49.49
2018-07-10T01:27:03.583Z,50.26
2018-07-10T01:30:28.349Z,50.36
2018-07-10T01:33:53.081Z,50.10
2018-07-10T01:37:17.836Z,50.77
2018-07-10T01:40:43.854Z,50.21
2018-07-10T01:44:08.527Z,50.31
2018-07-10T01:47:33.210Z,49.19
2018-07-10T01:50:57.954Z,49.22
2018-07-10T01:54:22.257Z,49.16
2018-07-10T01:57:47.073Z,48.97
2018-07-10T02:01:11.860Z,49.70
2018-07-10T02:04:38.106Z,50.23
2018-07-10T02:08:03.288Z,49.67
2018-07-10T02:11:28.138Z,49.56
2018-07-10T02:14:52.828Z,49.45
2018-07-10T02:18:17.590Z,49.18
2018-07-10T02:21:41.850Z,50.07
2018-07-10T02:25:06.673Z,48.62
2018-07-10T02:28:31.412Z,49.44
2018-07-10T02:31:56.241Z,48.60
2018-07-10T02:35:20.962Z,48.90
2018-07-10T02:38:48.777Z,49.22
2018-07-10T02:42:13.101Z,49.43
2018-07-10T02:45:37.874Z,49.14
2018-07-10T02:49:11.338Z,49.48
2018-07-10T02:52:39.995Z,49.15
2018-07-10T02:56:05.515Z,47.83
2018-07-10T02:59:36.522Z,48.31
2018-07-10T03:03:02.534Z,48.11
2018-07-10T03:06:27.218Z,48.77
2018-07-10T03:09:51.971Z,47.94
2018-07-10T03:13:17.318Z,48.05
2018-07-10T03:16:42.076Z,48.68
2018-07-10T03:20:07.711Z,48.50
2018-07-10T03:23:32.418Z,48.40
2018-07-10T03:26:57.093Z,48.27
2018-07-10T03:30:22.066Z,47.50
2018-07-10T03:33:46.897Z,47.99
2018-07-10T03:37:12.668Z,47.94
2018-07-10T03:40:37.424Z,47.55
2018-07-10T03:44:02.166Z,47.12
2018-07-10T03:47:28.122Z,48.13
2018-07-10T03:50:53.400Z,48.10
2018-07-10T03:54:19.084Z,49.18
2018-07-10T03:57:43.952Z,51.22
2018-07-10T04:01:08.780Z,51.24
2018-07-10T04:04:33.534Z,50.70
2018-07-10T04:07:58.908Z,50.87
2018-07-10T04:11:24.717Z,52.26
2018-07-10T04:14:49.471Z,51.72
2018-07-10T04:18:16.132Z,51.13
2018-07-10T04:21:40.892Z,51.35
2018-07-10T04:25:05.705Z,52.04
2018-07-10T04:28:35.763Z,52.73
2018-07-10T04:32:01.790Z,52.67
2018-07-10T04:35:28.361Z,52.08
2018-07-10T04:38:57.206Z,53.12
2018-07-10T04:42:29.566Z,52.66
2018-07-10T04:45:57.177Z,52.62
2018-07-10T04:49:30.719Z,53.45
2018-07-10T04:53:03.254Z,53.20
2018-07-10T04:56:28.953Z,52.20
2018-07-10T04:59:53.691Z,51.59
2018-07-10T05:03:20.668Z,52.05
2018-07-10T05:06:45.431Z,51.67
2018-07-10T05:10:10.485Z,53.03
2018-07-10T05:13:36.146Z,52.42
2018-07-10T05:17:01.431Z,53.83
2018-07-10T05:20:27.378Z,54.66
2018-07-10T05:23:52.214Z,56.22
2018-07-10T05:27:17.247Z,55.48
2018-07-10T05:30:43.960Z,56.64
2018-07-10T05:34:08.824Z,56.15
2018-07-10T05:37:37.267Z,56.78
2018-07-10T05:41:01.999Z,57.09
2018-07-10T05:44:26.338Z,56.54
2018-07-10T05:47:57.570Z,56.24
2018-07-10T05:51:23.554Z,55.51
2018-07-10T05:54:48.469Z,55.18
2018-07-10T05:58:12.921Z,55.29
2018-07-10T06:01:38.964Z,54.86
2018-07-10T06:05:03.741Z,55.56
2018-07-10T06:08:28.581Z,54.84
2018-07-10T06:11:53.278Z,55.15
2018-07-10T06:15:18.533Z,54.13
2018-07-10T06:18:44.212Z,53.56
2018-07-10T06:22:09.121Z,53.38
2018-07-10T06:25:35.814Z,53.86
2018-07-10T06:29:05.119Z,53.60
2018-07-10T06:32:36.846Z,54.86
2018-07-10T06:36:18.898Z,53.25
2018-07-10T06:39:43.603Z,53.03
2018-07-10T06:44:12.512Z,52.46
2018-07-10T06:47:48.757Z,52.40
2018-07-10T06:51:19.858Z,50.38
2018-07-10T06:54:57.511Z,50.44
2018-07-10T06:58:23.861Z,50.03
2018-07-10T07:01:49.621Z,49.77
2018-07-10T07:05:14.985Z,49.46
2018-07-10T07:08:39.848Z,48.50
2018-07-10T07:12:05.309Z,50.72
2018-07-10T07:15:30.104Z,50.21
2018-07-10T07:19:01.172Z,50.91
2018-07-10T07:22:26.295Z,50.40
2018-07-10T07:26:01.799Z,51.13
2018-07-10T07:29:27.634Z,49.33
2018-07-10T07:36:05.787Z,50.80
2018-07-10T07:39:31.703Z,49.51
2018-07-10T07:43:05.348Z,48.98
2018-07-10T07:46:31.322Z,48.13
2018-07-10T07:49:56.317Z,47.19
2018-07-10T07:53:21.444Z,46.91
2018-07-10T07:56:47.645Z,48.42
2018-07-10T08:00:12.383Z,48.17
2018-07-10T08:03:38.611Z,45.10
2018-07-10T08:07:03.411Z,45.87
2018-07-10T08:10:28.273Z,45.01
2018-07-10T08:13:53.233Z,45.84
2018-07-10T08:17:18.207Z,46.77
2018-07-10T08:20:43.133Z,43.44
2018-07-10T08:24:09.147Z,45.80
2018-07-10T08:27:37.327Z,46.07
2018-07-10T08:31:03.939Z,45.63
2018-07-10T08:34:30.325Z,45.29
2018-07-10T08:37:55.361Z,46.17
2018-07-10T08:41:22.519Z,48.05
2018-07-10T08:44:47.266Z,45.56
2018-07-10T08:48:13.060Z,43.08
2018-07-10T08:51:38.016Z,43.44
2018-07-10T08:55:03.375Z,43.87
2018-07-10T08:58:28.226Z,43.24
2018-07-10T09:01:53.358Z,45.07
2018-07-10T09:05:18.199Z,43.76
2018-07-10T09:08:42.959Z,42.55
2018-07-10T09:12:07.352Z,43.99
2018-07-10T09:15:33.307Z,45.27
2018-07-10T09:18:57.677Z,45.14
2018-07-10T09:22:22.382Z,44.53
2018-07-10T09:25:47.230Z,44.76
2018-07-10T09:29:11.527Z,45.65
2018-07-10T09:32:41.669Z,47.31
2018-07-10T09:36:06.308Z,45.43
2018-07-10T09:39:31.277Z,45.64
2018-07-10T09:43:01.413Z,45.48
2018-07-10T09:46:29.861Z,45.11
2018-07-10T09:49:54.719Z,43.51
2018-07-10T09:53:19.478Z,42.19
2018-07-10T09:56:44.471Z,42.02
2018-07-10T10:00:09.314Z,40.68
2018-07-10T10:03:34.835Z,40.29
2018-07-10T10:07:00.342Z,39.22
2018-07-10T10:10:25.310Z,41.90
2018-07-10T10:13:50.308Z,41.72
2018-07-10T10:17:16.184Z,44.88
2018-07-10T10:20:42.078Z,42.48
2018-07-10T10:24:06.487Z,43.11
2018-07-10T10:27:32.601Z,44.18
2018-07-10T10:30:57.363Z,43.26
2018-07-10T10:34:22.026Z,42.20
2018-07-10T10:37:47.247Z,41.66
2018-07-10T10:41:13.511Z,40.99
2018-07-10T10:44:38.198Z,43.53
2018-07-10T10:48:02.695Z,43.18
2018-07-10T10:51:27.513Z,42.33
2018-07-10T10:54:52.276Z,43.08
2018-07-10T10:58:17.067Z,43.72
2018-07-10T11:01:41.405Z,43.87
2018-07-10T11:05:06.265Z,39.71
2018-07-10T11:08:31.135Z,39.89
2018-07-10T11:11:57.244Z,40.72
2018-07-10T11:15:22.318Z,41.04
2018-07-10T11:19:00.905Z,41.08
2018-07-10T11:22:25.988Z,39.69
2018-07-10T11:25:50.970Z,41.73
2018-07-10T11:29:16.009Z,39.80
2018-07-10T11:32:40.755Z,39.61
2018-07-10T11:36:05.465Z,40.72
2018-07-10T11:39:30.636Z,40.84
2018-07-10T11:42:55.288Z,41.31
2018-07-10T11:46:20.042Z,40.88
2018-07-10T11:49:44.338Z,40.08
2018-07-10T11:53:10.091Z,42.46
2018-07-10T11:56:34.861Z,42.04
2018-07-10T11:59:59.681Z,41.56
2018-07-10T12:03:25.878Z,41.25
2018-07-10T12:06:52.345Z,40.63
2018-07-10T12:10:26.188Z,40.85
2018-07-10T12:13:50.907Z,40.62
2018-07-10T12:17:15.217Z,38.88
2018-07-10T12:20:41.461Z,40.43
2018-07-10T12:24:06.772Z,40.57
2018-07-10T12:27:31.771Z,40.12
2018-07-10T12:30:56.461Z,38.65
2018-07-10T12:34:21.151Z,38.65
2018-07-10T12:37:45.893Z,38.81
2018-07-10T12:41:11.677Z,39.29
2018-07-10T12:44:36.390Z,40.04
2018-07-10T12:48:01.163Z,39.01
2018-07-10T12:51:25.905Z,37.38
2018-07-10T12:54:50.919Z,36.59
2018-07-10T12:58:16.792Z,38.83
2018-07-10T13:01:41.497Z,38.67
2018-07-10T13:05:07.514Z,34.86
2018-07-10T13:08:33.287Z,35.99
2018-07-10T13:11:57.671Z,36.03
2018-07-10T13:15:22.503Z,36.96
2018-07-10T13:18:47.254Z,36.48
2018-07-10T13:22:11.994Z,36.30
2018-07-10T13:25:36.709Z,36.17
2018-07-10T13:29:01.458Z,36.32
2018-07-10T13:32:26.264Z,37.08
2018-07-10T13:35:51.131Z,37.62
2018-07-10T13:39:15.761Z,36.24
2018-07-10T13:42:48.981Z,35.83
2018-07-10T13:46:13.672Z,36.24
2018-07-10T13:49:37.927Z,35.79
2018-07-10T13:53:04.153Z,34.42
2018-07-10T13:56:28.795Z,34.41
2018-07-10T13:59:53.443Z,33.57
2018-07-10T14:03:18.164Z,33.24
2018-07-10T14:06:42.559Z,36.23
2018-07-10T14:10:07.277Z,34.79
2018-07-10T14:13:31.635Z,32.87
2018-07-10T14:16:56.371Z,34.39
2018-07-10T14:20:21.060Z,34.15
2018-07-10T14:23:45.792Z,34.73
2018-07-10T14:27:10.519Z,32.44
2018-07-10T14:30:36.244Z,32.87
2018-07-10T14:34:00.951Z,33.36
2018-07-10T14:37:25.298Z,33.23
2018-07-10T14:40:51.268Z,34.53
2018-07-10T14:44:16.160Z,34.84
2018-07-10T14:47:40.837Z,36.23
2018-07-10T14:51:05.543Z,36.16
2018-07-10T14:54:30.256Z,36.16
2018-07-10T14:57:55.762Z,36.96
2018-07-10T15:01:20.474Z,37.30
2018-07-10T15:04:45.186Z,36.45
2018-07-10T15:09:38.928Z,37.96
2018-07-10T15:13:03.630Z,38.05
2018-07-10T15:16:33.112Z,38.84
2018-07-10T15:19:57.882Z,38.63
2018-07-10T15:23:22.679Z,38.50
2018-07-10T15:26:47.321Z,38.56
2018-07-10T15:30:12.114Z,39.46
2018-07-10T15:33:36.835Z,39.84
2018-07-10T15:37:02.188Z,39.68
2018-07-10T15:40:26.918Z,39.52
2018-07-10T15:43:51.607Z,40.15
2018-07-10T15:47:16.317Z,39.64
2018-07-10T15:50:41.090Z,39.65
2018-07-10T15:54:05.445Z,39.33
2018-07-10T15:57:29.796Z,39.26
2018-07-10T16:00:54.548Z,39.63
2018-07-10T16:04:19.322Z,39.84
2018-07-10T16:07:44.076Z,40.48
2018-07-10T16:11:08.376Z,40.78
2018-07-10T16:14:33.047Z,41.55
2018-07-10T16:17:57.376Z,43.11
2018-07-10T16:21:22.104Z,41.35
2018-07-10T16:24:51.115Z,40.80
2018-07-10T16:28:18.297Z,41.93
2018-07-10T16:31:45.449Z,43.07
2018-07-10T16:35:10.750Z,43.09
2018-07-10T16:38:37.282Z,43.51
2018-07-10T16:42:07.261Z,42.69
2018-07-10T16:45:37.594Z,42.52
2018-07-10T16:49:43.861Z,43.57
2018-07-10T16:53:08.620Z,41.07
2018-07-10T16:56:33.363Z,40.77
2018-07-10T16:59:58.544Z,40.05
2018-07-10T17:03:23.249Z,40.87
2018-07-10T17:06:47.971Z,40.53
2018-07-10T17:10:12.930Z,41.54
2018-07-10T17:13:38.694Z,43.30
2018-07-10T17:17:03.425Z,44.22
2018-07-10T17:20:28.309Z,43.47
2018-07-10T17:23:53.832Z,41.46
2018-07-10T17:27:23.319Z,39.87
2018-07-10T17:30:48.021Z,39.50
2018-07-10T17:34:12.874Z,39.35
2018-07-10T17:37:48.273Z,39.51
2018-07-10T17:41:13.168Z,38.71
2018-07-10T17:44:39.128Z,39.88
2018-07-10T17:48:03.871Z,40.89
2018-07-10T17:51:31.887Z,40.49
2018-07-10T17:54:56.608Z,40.48
2018-07-10T17:58:23.115Z,38.93
2018-07-10T18:01:48.050Z,41.58
2018-07-10T18:05:13.067Z,42.24
2018-07-10T18:08:39.045Z,43.79
2018-07-10T18:12:04.193Z,44.10
2018-07-10T18:15:29.221Z,44.33
2018-07-10T18:18:54.234Z,44.77
2018-07-10T18:22:19.496Z,44.82
2018-07-10T18:25:44.512Z,44.23
2018-07-10T18:29:09.434Z,44.62
2018-07-10T18:32:34.076Z,45.32
2018-07-10T18:35:59.726Z,46.23
2018-07-10T18:39:24.659Z,45.59
2018-07-10T18:42:49.783Z,47.07
2018-07-10T18:46:14.834Z,47.31
2018-07-10T18:49:39.908Z,47.13
2018-07-10T18:53:04.819Z,48.47
2018-07-10T18:56:30.785Z,47.54
2018-07-10T19:00:06.480Z,47.86
2018-07-10T19:03:34.656Z,48.72
2018-07-10T19:06:59.244Z,48.45
2018-07-10T19:10:24.408Z,49.47
2018-07-10T19:13:49.357Z,49.39
2018-07-10T19:17:17.996Z,48.88
2018-07-10T19:20:53.887Z,48.94
2018-07-10T19:24:19.709Z,49.60
2018-07-10T19:27:46.723Z,49.55
2018-07-10T19:31:19.433Z,49.91
2018-07-10T19:34:44.653Z,50.51
2018-07-10T19:38:10.266Z,50.42
2018-07-10T19:41:34.971Z,50.07
2018-07-10T19:45:02.199Z,49.86
2018-07-10T19:48:26.971Z,50.54
2018-07-10T19:51:52.089Z,51.70
2018-07-10T19:55:18.598Z,51.81
2018-07-10T19:58:45.279Z,52.94
2018-07-10T20:02:10.787Z,53.62
2018-07-10T20:05:36.910Z,54.68
2018-07-10T20:09:08.822Z,53.88
2018-07-10T20:12:39.304Z,54.15
2018-07-10T20:16:09.637Z,53.91
2018-07-10T20:19:44.476Z,53.93
2018-07-10T20:23:30.180Z,53.63
2018-07-10T20:27:10.522Z,54.53
2018-07-10T20:30:53.271Z,54.20
2018-07-10T20:34:55.390Z,53.09
2018-07-10T20:38:21.109Z,53.72
2018-07-10T20:41:47.722Z,53.44
2018-07-10T20:45:13.186Z,53.66
2018-07-10T20:48:55.898Z,53.72
2018-07-10T20:53:01.377Z,53.33
2018-07-10T20:58:49.649Z,53.34
2018-07-10T21:04:27.766Z,52.94
2018-07-10T21:07:57.648Z,53.40
2018-07-10T21:11:28.336Z,52.58
2018-07-10T21:15:05.603Z,53.83
2018-07-10T21:19:47.457Z,53.29
2018-07-10T21:23:26.797Z,53.55
2018-07-10T21:27:01.251Z,53.24
2018-07-10T21:30:49.778Z,53.39
2018-07-10T21:34:25.160Z,54.52
2018-07-10T21:38:02.965Z,53.25
2018-07-10T21:42:51.096Z,54.56
2018-07-10T21:46:33.821Z,53.96
2018-07-10T21:50:02.310Z,54.47
2018-07-10T21:53:27.543Z,54.13
2018-07-10T21:56:53.220Z,54.50
2018-07-10T22:00:18.581Z,53.97
2018-07-10T22:03:43.850Z,54.25
2018-07-10T22:07:13.412Z,53.24
2018-07-10T22:10:38.650Z,52.85
2018-07-10T22:14:03.976Z,53.38
2018-07-10T22:17:29.355Z,53.53
2018-07-10T22:20:54.712Z,53.51
2018-07-10T22:24:20.367Z,53.28
2018-07-10T22:27:45.782Z,53.68
2018-07-10T22:31:17.096Z,53.30
2018-07-10T22:34:45.275Z,54.09
2018-07-10T22:38:10.049Z,53.88
2018-07-10T22:41:35.417Z,54.01
2018-07-10T22:45:01.020Z,53.92
2018-07-10T22:48:26.411Z,53.80
2018-07-10T22:51:51.668Z,53.19
2018-07-10T22:55:20.956Z,53.50
2018-07-10T22:58:46.297Z,54.41
2018-07-10T23:02:17.089Z,53.18
2018-07-10T23:05:44.219Z,52.83
2018-07-10T23:09:08.551Z,52.66
2018-07-10T23:12:33.262Z,52.40
2018-07-10T23:15:58.015Z,53.12
2018-07-10T23:19:22.779Z,52.29
2018-07-10T23:22:55.916Z,52.82
2018-07-10T23:26:20.730Z,53.05
2018-07-10T23:29:45.463Z,52.92
2018-07-10T23:33:15.940Z,53.29
2018-07-10T23:36:40.374Z,52.97
2018-07-10T23:40:05.694Z,53.01
2018-07-10T23:43:38.800Z,53.35
2018-07-10T23:47:13.283Z,53.48
2018-07-10T23:50:38.328Z,53.18
2018-07-10T23:54:03.043Z,53.81
2018-07-10T23:57:27.724Z,53.81
